sensor_id;sensor_type;location;lat;lon;timestamp;pressure;altitude;pressure_sealevel;temperature;humidity
10135;BME280;5107;48.850;8.924;2023-01-27T00:01:01;97004.56;;;-1.85;92.90
10135;BME280;5107;48.850;8.924;2023-01-27T00:03:29;96996.25;;;-1.91;92.71
10135;BME280;5107;48.850;8.924;2023-01-27T00:05:56;96997.16;;;-1.92;92.87
10135;BME280;5107;48.850;8.924;2023-01-27T00:08:25;96992.19;;;-1.95;93.02
10135;BME280;5107;48.850;8.924;2023-01-27T00:10:57;96993.59;;;-1.89;93.21
10135;BME280;5107;48.850;8.924;2023-01-27T00:13:37;96981.88;;;-1.95;92.74
10135;BME280;5107;48.850;8.924;2023-01-27T00:16:05;96992.59;;;-1.86;92.70
10135;BME280;5107;48.850;8.924;2023-01-27T00:18:33;96990.66;;;-1.83;92.25
10135;BME280;5107;48.850;8.924;2023-01-27T00:21:01;96992.94;;;-1.93;92.01
10135;BME280;5107;48.850;8.924;2023-01-27T00:23:45;96995.16;;;-1.86;92.31
10135;BME280;5107;48.850;8.924;2023-01-27T00:26:30;96990.09;;;-1.88;92.40
10135;BME280;5107;48.850;8.924;2023-01-27T00:28:57;96993.97;;;-1.81;92.70
10135;BME280;5107;48.850;8.924;2023-01-27T00:31:24;96985.84;;;-1.89;92.23
10135;BME280;5107;48.850;8.924;2023-01-27T00:34:09;96990.16;;;-1.89;92.55
10135;BME280;5107;48.850;8.924;2023-01-27T00:36:40;96986.69;;;-1.88;92.30
10135;BME280;5107;48.850;8.924;2023-01-27T00:39:10;96994.06;;;-1.82;92.34
10135;BME280;5107;48.850;8.924;2023-01-27T00:41:38;96989.34;;;-1.90;92.88
10135;BME280;5107;48.850;8.924;2023-01-27T00:44:06;96994.94;;;-1.98;92.37
10135;BME280;5107;48.850;8.924;2023-01-27T00:46:38;96988.47;;;-2.05;92.11
10135;BME280;5107;48.850;8.924;2023-01-27T00:49:09;96986.81;;;-2.06;92.86
10135;BME280;5107;48.850;8.924;2023-01-27T00:51:38;96981.91;;;-2.10;93.17
10135;BME280;5107;48.850;8.924;2023-01-27T00:54:05;96981.09;;;-2.11;93.57
10135;BME280;5107;48.850;8.924;2023-01-27T00:56:33;96989.53;;;-2.09;93.30
10135;BME280;5107;48.850;8.924;2023-01-27T00:59:00;96984.22;;;-2.06;93.64
10135;BME280;5107;48.850;8.924;2023-01-27T01:01:27;96984.69;;;-1.99;93.17
10135;BME280;5107;48.850;8.924;2023-01-27T01:03:55;96987.34;;;-2.01;93.01
10135;BME280;5107;48.850;8.924;2023-01-27T01:06:25;96989.25;;;-1.88;93.10
10135;BME280;5107;48.850;8.924;2023-01-27T01:08:54;96995.09;;;-1.85;92.49
10135;BME280;5107;48.850;8.924;2023-01-27T01:11:21;96991.41;;;-1.81;92.47
10135;BME280;5107;48.850;8.924;2023-01-27T01:13:49;96988.00;;;-1.81;91.68
10135;BME280;5107;48.850;8.924;2023-01-27T01:16:19;96988.91;;;-1.82;92.47
10135;BME280;5107;48.850;8.924;2023-01-27T01:18:48;97001.63;;;-1.79;92.43
10135;BME280;5107;48.850;8.924;2023-01-27T01:21:15;97003.78;;;-1.72;92.08
10135;BME280;5107;48.850;8.924;2023-01-27T01:23:45;97002.00;;;-1.85;91.46
10135;BME280;5107;48.850;8.924;2023-01-27T01:26:14;96996.16;;;-1.89;91.05
10135;BME280;5107;48.850;8.924;2023-01-27T01:28:42;96998.09;;;-1.93;91.65
10135;BME280;5107;48.850;8.924;2023-01-27T01:31:13;97006.47;;;-1.89;91.71
10135;BME280;5107;48.850;8.924;2023-01-27T01:33:40;97000.34;;;-2.02;91.04
10135;BME280;5107;48.850;8.924;2023-01-27T01:36:12;96991.53;;;-1.98;92.12
10135;BME280;5107;48.850;8.924;2023-01-27T01:38:40;96990.25;;;-1.91;92.60
10135;BME280;5107;48.850;8.924;2023-01-27T01:41:13;96987.13;;;-1.96;91.59
10135;BME280;5107;48.850;8.924;2023-01-27T01:43:41;96996.50;;;-1.95;91.70
10135;BME280;5107;48.850;8.924;2023-01-27T01:46:09;96980.78;;;-1.91;92.30
10135;BME280;5107;48.850;8.924;2023-01-27T01:48:38;96986.53;;;-1.85;91.75
10135;BME280;5107;48.850;8.924;2023-01-27T01:51:11;96983.50;;;-1.78;91.85
10135;BME280;5107;48.850;8.924;2023-01-27T01:53:46;96987.06;;;-1.80;91.14
10135;BME280;5107;48.850;8.924;2023-01-27T01:56:24;96978.50;;;-1.81;91.27
10135;BME280;5107;48.850;8.924;2023-01-27T01:58:55;96971.84;;;-1.69;90.10
10135;BME280;5107;48.850;8.924;2023-01-27T02:01:24;96975.25;;;-1.69;90.17
10135;BME280;5107;48.850;8.924;2023-01-27T02:03:55;96975.88;;;-1.65;89.40
10135;BME280;5107;48.850;8.924;2023-01-27T02:06:25;96964.41;;;-1.60;88.06
10135;BME280;5107;48.850;8.924;2023-01-27T02:08:53;96971.63;;;-1.66;87.36
10135;BME280;5107;48.850;8.924;2023-01-27T02:11:22;96976.06;;;-1.68;87.06
10135;BME280;5107;48.850;8.924;2023-01-27T02:13:49;96971.16;;;-1.73;87.36
10135;BME280;5107;48.850;8.924;2023-01-27T02:16:18;96967.94;;;-1.76;89.13
10135;BME280;5107;48.850;8.924;2023-01-27T02:18:45;96967.94;;;-1.76;88.30
10135;BME280;5107;48.850;8.924;2023-01-27T02:21:12;96975.84;;;-1.79;87.72
10135;BME280;5107;48.850;8.924;2023-01-27T02:23:54;96968.94;;;-1.79;88.01
10135;BME280;5107;48.850;8.924;2023-01-27T02:26:29;96972.66;;;-1.69;87.59
10135;BME280;5107;48.850;8.924;2023-01-27T02:29:01;96972.34;;;-1.78;87.88
10135;BME280;5107;48.850;8.924;2023-01-27T02:31:29;96969.09;;;-1.82;88.60
10135;BME280;5107;48.850;8.924;2023-01-27T02:34:00;96967.28;;;-1.80;89.75
10135;BME280;5107;48.850;8.924;2023-01-27T02:36:31;96966.28;;;-1.77;90.09
10135;BME280;5107;48.850;8.924;2023-01-27T02:39:01;96967.13;;;-1.77;90.35
10135;BME280;5107;48.850;8.924;2023-01-27T02:41:34;96966.63;;;-1.83;91.07
10135;BME280;5107;48.850;8.924;2023-01-27T02:44:03;96973.03;;;-1.91;91.02
10135;BME280;5107;48.850;8.924;2023-01-27T02:46:32;96966.41;;;-1.95;92.21
10135;BME280;5107;48.850;8.924;2023-01-27T02:48:59;96956.19;;;-1.96;91.97
10135;BME280;5107;48.850;8.924;2023-01-27T02:51:26;96952.03;;;-1.99;92.41
10135;BME280;5107;48.850;8.924;2023-01-27T02:53:54;96949.13;;;-1.93;92.06
10135;BME280;5107;48.850;8.924;2023-01-27T02:56:21;96954.91;;;-1.89;91.26
10135;BME280;5107;48.850;8.924;2023-01-27T02:58:50;96958.16;;;-1.85;90.56
10135;BME280;5107;48.850;8.924;2023-01-27T03:01:25;96957.63;;;-1.76;90.09
10135;BME280;5107;48.850;8.924;2023-01-27T03:03:52;96963.72;;;-1.77;89.81
10135;BME280;5107;48.850;8.924;2023-01-27T03:06:20;96960.38;;;-1.79;89.52
10135;BME280;5107;48.850;8.924;2023-01-27T03:08:47;96960.09;;;-1.75;89.71
10135;BME280;5107;48.850;8.924;2023-01-27T03:11:15;96960.84;;;-1.73;89.06
10135;BME280;5107;48.850;8.924;2023-01-27T03:14:05;96965.00;;;-1.70;89.18
10135;BME280;5107;48.850;8.924;2023-01-27T03:16:32;96968.34;;;-1.68;88.78
10135;BME280;5107;48.850;8.924;2023-01-27T03:19:17;96970.34;;;-1.73;88.89
10135;BME280;5107;48.850;8.924;2023-01-27T03:21:44;96962.69;;;-1.75;88.85
10135;BME280;5107;48.850;8.924;2023-01-27T03:24:15;96961.84;;;-1.75;89.07
10135;BME280;5107;48.850;8.924;2023-01-27T03:26:43;96968.03;;;-1.78;88.62
10135;BME280;5107;48.850;8.924;2023-01-27T03:29:14;96960.22;;;-1.76;88.59
10135;BME280;5107;48.850;8.924;2023-01-27T03:32:00;96966.44;;;-1.80;89.60
10135;BME280;5107;48.850;8.924;2023-01-27T03:34:28;96958.63;;;-1.79;89.70
10135;BME280;5107;48.850;8.924;2023-01-27T03:37:03;96962.22;;;-1.81;90.08
10135;BME280;5107;48.850;8.924;2023-01-27T03:39:49;96963.63;;;-1.76;89.61
10135;BME280;5107;48.850;8.924;2023-01-27T03:42:34;96950.22;;;-1.82;89.55
10135;BME280;5107;48.850;8.924;2023-01-27T03:45:20;96954.66;;;-1.84;91.30
10135;BME280;5107;48.850;8.924;2023-01-27T03:48:05;96961.84;;;-1.75;90.39
10135;BME280;5107;48.850;8.924;2023-01-27T03:50:32;96967.31;;;-1.66;90.06
10135;BME280;5107;48.850;8.924;2023-01-27T03:53:03;96969.34;;;-1.71;89.28
10135;BME280;5107;48.850;8.924;2023-01-27T03:55:31;96976.31;;;-1.73;89.00
10135;BME280;5107;48.850;8.924;2023-01-27T03:57:58;96979.41;;;-1.82;89.64
10135;BME280;5107;48.850;8.924;2023-01-27T04:00:40;96985.41;;;-1.81;90.07
10135;BME280;5107;48.850;8.924;2023-01-27T04:03:07;96984.97;;;-1.74;90.28
10135;BME280;5107;48.850;8.924;2023-01-27T04:05:52;96987.63;;;-1.75;90.47
10135;BME280;5107;48.850;8.924;2023-01-27T04:08:37;96986.56;;;-1.71;90.11
10135;BME280;5107;48.850;8.924;2023-01-27T04:11:04;96989.22;;;-1.73;89.96
10135;BME280;5107;48.850;8.924;2023-01-27T04:13:49;96989.28;;;-1.74;90.33
10135;BME280;5107;48.850;8.924;2023-01-27T04:16:17;96991.25;;;-1.78;90.62
10135;BME280;5107;48.850;8.924;2023-01-27T04:18:45;96987.25;;;-1.83;91.65
10135;BME280;5107;48.850;8.924;2023-01-27T04:21:12;96978.34;;;-1.78;91.78
10135;BME280;5107;48.850;8.924;2023-01-27T04:23:39;96985.59;;;-1.84;91.67
10135;BME280;5107;48.850;8.924;2023-01-27T04:26:06;96984.34;;;-1.77;92.54
10135;BME280;5107;48.850;8.924;2023-01-27T04:28:33;96990.59;;;-1.67;91.13
10135;BME280;5107;48.850;8.924;2023-01-27T04:31:00;96997.53;;;-1.68;91.31
10135;BME280;5107;48.850;8.924;2023-01-27T04:33:29;96994.28;;;-1.71;91.43
10135;BME280;5107;48.850;8.924;2023-01-27T04:35:56;96996.47;;;-1.79;91.13
10135;BME280;5107;48.850;8.924;2023-01-27T04:38:23;96991.03;;;-1.75;91.25
10135;BME280;5107;48.850;8.924;2023-01-27T04:40:50;96991.34;;;-1.65;90.87
10135;BME280;5107;48.850;8.924;2023-01-27T04:43:17;96999.91;;;-1.65;90.36
10135;BME280;5107;48.850;8.924;2023-01-27T04:45:46;96999.28;;;-1.68;90.21
10135;BME280;5107;48.850;8.924;2023-01-27T04:48:13;97005.91;;;-1.64;89.89
10135;BME280;5107;48.850;8.924;2023-01-27T04:50:42;97000.91;;;-1.67;89.43
10135;BME280;5107;48.850;8.924;2023-01-27T04:53:08;96995.28;;;-1.74;90.63
10135;BME280;5107;48.850;8.924;2023-01-27T04:55:36;96992.63;;;-1.72;91.02
10135;BME280;5107;48.850;8.924;2023-01-27T04:58:03;96995.88;;;-1.69;91.75
10135;BME280;5107;48.850;8.924;2023-01-27T05:00:31;96994.50;;;-1.60;91.18
10135;BME280;5107;48.850;8.924;2023-01-27T05:02:58;96994.28;;;-1.71;90.76
10135;BME280;5107;48.850;8.924;2023-01-27T05:05:25;97005.28;;;-1.68;90.57
10135;BME280;5107;48.850;8.924;2023-01-27T05:07:53;96997.69;;;-1.71;91.98
10135;BME280;5107;48.850;8.924;2023-01-27T05:10:20;96991.34;;;-1.65;91.36
10135;BME280;5107;48.850;8.924;2023-01-27T05:12:47;96995.75;;;-1.67;90.88
10135;BME280;5107;48.850;8.924;2023-01-27T05:15:15;96993.09;;;-1.66;90.61
10135;BME280;5107;48.850;8.924;2023-01-27T05:17:41;96992.63;;;-1.72;91.18
10135;BME280;5107;48.850;8.924;2023-01-27T05:20:10;96988.44;;;-1.89;90.79
10135;BME280;5107;48.850;8.924;2023-01-27T05:22:37;96984.19;;;-1.90;91.63
10135;BME280;5107;48.850;8.924;2023-01-27T05:25:06;96987.44;;;-1.86;92.22
10135;BME280;5107;48.850;8.924;2023-01-27T05:27:34;96998.91;;;-1.92;92.29
10135;BME280;5107;48.850;8.924;2023-01-27T05:30:01;96983.72;;;-1.97;92.78
10135;BME280;5107;48.850;8.924;2023-01-27T05:32:28;96987.03;;;-1.95;92.76
10135;BME280;5107;48.850;8.924;2023-01-27T05:34:55;96989.63;;;-1.95;92.15
10135;BME280;5107;48.850;8.924;2023-01-27T05:37:22;96992.19;;;-1.95;92.39
10135;BME280;5107;48.850;8.924;2023-01-27T05:39:49;97001.22;;;-1.87;92.77
10135;BME280;5107;48.850;8.924;2023-01-27T05:42:17;97009.97;;;-1.90;92.38
10135;BME280;5107;48.850;8.924;2023-01-27T05:44:44;97015.34;;;-1.79;91.76
10135;BME280;5107;48.850;8.924;2023-01-27T05:47:11;97025.31;;;-1.73;90.96
10135;BME280;5107;48.850;8.924;2023-01-27T05:49:38;97016.44;;;-1.83;91.73
10135;BME280;5107;48.850;8.924;2023-01-27T05:52:05;97022.25;;;-1.79;91.11
10135;BME280;5107;48.850;8.924;2023-01-27T05:54:32;97025.75;;;-1.80;91.70
10135;BME280;5107;48.850;8.924;2023-01-27T05:56:59;97029.09;;;-1.78;91.84
10135;BME280;5107;48.850;8.924;2023-01-27T05:59:28;97026.38;;;-1.61;91.34
10135;BME280;5107;48.850;8.924;2023-01-27T06:01:55;97037.38;;;-1.73;90.87
10135;BME280;5107;48.850;8.924;2023-01-27T06:04:22;97034.78;;;-1.73;91.14
10135;BME280;5107;48.850;8.924;2023-01-27T06:06:49;97032.56;;;-1.79;91.85
10135;BME280;5107;48.850;8.924;2023-01-27T06:09:16;97026.66;;;-1.81;92.62
10135;BME280;5107;48.850;8.924;2023-01-27T06:11:43;97029.84;;;-1.76;91.33
10135;BME280;5107;48.850;8.924;2023-01-27T06:14:10;97025.41;;;-1.74;91.72
10135;BME280;5107;48.850;8.924;2023-01-27T06:16:38;97025.50;;;-1.76;92.12
10135;BME280;5107;48.850;8.924;2023-01-27T06:19:05;97022.09;;;-1.76;92.80
10135;BME280;5107;48.850;8.924;2023-01-27T06:21:32;97023.66;;;-1.74;93.04
10135;BME280;5107;48.850;8.924;2023-01-27T06:23:59;97022.94;;;-1.76;93.20
10135;BME280;5107;48.850;8.924;2023-01-27T06:26:26;97025.59;;;-1.77;92.74
10135;BME280;5107;48.850;8.924;2023-01-27T06:28:55;97019.84;;;-1.82;92.90
10135;BME280;5107;48.850;8.924;2023-01-27T06:31:22;97014.69;;;-1.82;92.09
10135;BME280;5107;48.850;8.924;2023-01-27T06:33:51;97016.44;;;-1.83;93.71
10135;BME280;5107;48.850;8.924;2023-01-27T06:36:20;97029.09;;;-1.78;93.38
10135;BME280;5107;48.850;8.924;2023-01-27T06:38:48;97027.81;;;-1.71;93.41
10135;BME280;5107;48.850;8.924;2023-01-27T06:41:16;97022.81;;;-1.74;93.55
10135;BME280;5107;48.850;8.924;2023-01-27T06:43:43;97032.06;;;-1.70;93.68
10135;BME280;5107;48.850;8.924;2023-01-27T06:46:10;97038.88;;;-1.69;93.22
10135;BME280;5107;48.850;8.924;2023-01-27T06:48:37;97047.88;;;-1.76;93.53
10135;BME280;5107;48.850;8.924;2023-01-27T06:51:06;97053.25;;;-1.65;92.72
10135;BME280;5107;48.850;8.924;2023-01-27T06:53:33;97052.84;;;-1.73;92.39
10135;BME280;5107;48.850;8.924;2023-01-27T06:56:02;97056.34;;;-1.74;93.47
10135;BME280;5107;48.850;8.924;2023-01-27T06:58:29;97053.59;;;-1.71;92.68
10135;BME280;5107;48.850;8.924;2023-01-27T07:00:57;97054.16;;;-1.66;93.10
10135;BME280;5107;48.850;8.924;2023-01-27T07:03:25;97057.66;;;-1.67;92.72
10135;BME280;5107;48.850;8.924;2023-01-27T07:05:52;97059.31;;;-1.66;92.30
10135;BME280;5107;48.850;8.924;2023-01-27T07:08:20;97066.88;;;-1.63;92.41
10135;BME280;5107;48.850;8.924;2023-01-27T07:10:48;97075.53;;;-1.64;93.14
10135;BME280;5107;48.850;8.924;2023-01-27T07:13:15;97080.06;;;-1.68;92.46
10135;BME280;5107;48.850;8.924;2023-01-27T07:15:43;97075.59;;;-1.50;92.23
10135;BME280;5107;48.850;8.924;2023-01-27T07:18:11;97080.94;;;-1.53;91.30
10135;BME280;5107;48.850;8.924;2023-01-27T07:20:39;97087.75;;;-1.52;91.31
10135;BME280;5107;48.850;8.924;2023-01-27T07:23:06;97089.44;;;-1.51;90.39
10135;BME280;5107;48.850;8.924;2023-01-27T07:25:34;97086.09;;;-1.53;90.37
10135;BME280;5107;48.850;8.924;2023-01-27T07:28:02;97093.56;;;-1.48;90.06
10135;BME280;5107;48.850;8.924;2023-01-27T07:30:30;97100.06;;;-1.57;89.65
10135;BME280;5107;48.850;8.924;2023-01-27T07:33:02;97098.31;;;-1.57;89.84
10135;BME280;5107;48.850;8.924;2023-01-27T07:35:30;97102.47;;;-1.54;90.18
10135;BME280;5107;48.850;8.924;2023-01-27T07:37:57;97098.41;;;-1.58;89.93
10135;BME280;5107;48.850;8.924;2023-01-27T07:40:25;97099.22;;;-1.58;89.71
10135;BME280;5107;48.850;8.924;2023-01-27T07:42:56;97107.09;;;-1.59;89.76
10135;BME280;5107;48.850;8.924;2023-01-27T07:45:26;97098.66;;;-1.63;89.97
10135;BME280;5107;48.850;8.924;2023-01-27T07:47:53;97108.72;;;-1.58;89.84
10135;BME280;5107;48.850;8.924;2023-01-27T07:50:20;97105.91;;;-1.54;89.47
10135;BME280;5107;48.850;8.924;2023-01-27T07:52:47;97108.56;;;-1.55;89.84
10135;BME280;5107;48.850;8.924;2023-01-27T07:55:14;97114.69;;;-1.58;89.40
10135;BME280;5107;48.850;8.924;2023-01-27T07:57:41;97111.28;;;-1.58;89.90
10135;BME280;5107;48.850;8.924;2023-01-27T08:00:12;97120.28;;;-1.49;90.13
10135;BME280;5107;48.850;8.924;2023-01-27T08:02:41;97118.03;;;-1.56;89.66
10135;BME280;5107;48.850;8.924;2023-01-27T08:05:08;97119.03;;;-1.58;89.32
10135;BME280;5107;48.850;8.924;2023-01-27T08:07:35;97126.59;;;-1.55;88.68
10135;BME280;5107;48.850;8.924;2023-01-27T08:10:03;97129.66;;;-1.48;88.47
10135;BME280;5107;48.850;8.924;2023-01-27T08:12:30;97127.00;;;-1.47;89.14
10135;BME280;5107;48.850;8.924;2023-01-27T08:14:57;97126.44;;;-1.52;88.69
10135;BME280;5107;48.850;8.924;2023-01-27T08:17:26;97129.03;;;-1.52;88.33
10135;BME280;5107;48.850;8.924;2023-01-27T08:19:53;97131.59;;;-1.52;88.63
10135;BME280;5107;48.850;8.924;2023-01-27T08:22:20;97125.69;;;-1.54;89.18
10135;BME280;5107;48.850;8.924;2023-01-27T08:24:47;97125.53;;;-1.51;89.67
10135;BME280;5107;48.850;8.924;2023-01-27T08:27:14;97132.84;;;-1.43;88.90
10135;BME280;5107;48.850;8.924;2023-01-27T08:29:42;97120.94;;;-1.46;88.87
10135;BME280;5107;48.850;8.924;2023-01-27T08:32:09;97131.25;;;-1.46;89.04
10135;BME280;5107;48.850;8.924;2023-01-27T08:34:39;97132.00;;;-1.44;88.96
10135;BME280;5107;48.850;8.924;2023-01-27T08:37:06;97134.66;;;-1.45;89.53
10135;BME280;5107;48.850;8.924;2023-01-27T08:39:33;97141.50;;;-1.44;89.23
10135;BME280;5107;48.850;8.924;2023-01-27T08:42:01;97144.00;;;-1.43;88.72
10135;BME280;5107;48.850;8.924;2023-01-27T08:44:28;97142.41;;;-1.45;88.62
10135;BME280;5107;48.850;8.924;2023-01-27T08:46:55;97148.97;;;-1.40;89.09
10135;BME280;5107;48.850;8.924;2023-01-27T08:49:22;97141.56;;;-1.46;88.75
10135;BME280;5107;48.850;8.924;2023-01-27T08:51:50;97143.84;;;-1.56;89.00
10135;BME280;5107;48.850;8.924;2023-01-27T08:54:17;97147.09;;;-1.52;89.60
10135;BME280;5107;48.850;8.924;2023-01-27T08:56:44;97142.56;;;-1.48;89.63
10135;BME280;5107;48.850;8.924;2023-01-27T08:59:11;97145.00;;;-1.45;90.05
10135;BME280;5107;48.850;8.924;2023-01-27T09:01:38;97146.66;;;-1.44;90.46
10135;BME280;5107;48.850;8.924;2023-01-27T09:04:06;97152.66;;;-1.44;89.10
10135;BME280;5107;48.850;8.924;2023-01-27T09:06:34;97156.91;;;-1.43;89.55
10135;BME280;5107;48.850;8.924;2023-01-27T09:09:02;97157.81;;;-1.44;89.85
10135;BME280;5107;48.850;8.924;2023-01-27T09:11:38;97151.75;;;-1.43;89.55
10135;BME280;5107;48.850;8.924;2023-01-27T09:14:05;97150.63;;;-1.39;89.30
10135;BME280;5107;48.850;8.924;2023-01-27T09:16:32;97158.66;;;-1.43;89.15
10135;BME280;5107;48.850;8.924;2023-01-27T09:19:00;97151.47;;;-1.38;89.19
10135;BME280;5107;48.850;8.924;2023-01-27T09:21:27;97155.22;;;-1.44;89.39
10135;BME280;5107;48.850;8.924;2023-01-27T09:23:54;97151.16;;;-1.48;89.68
10135;BME280;5107;48.850;8.924;2023-01-27T09:26:22;97147.81;;;-1.50;89.68
10135;BME280;5107;48.850;8.924;2023-01-27T09:28:49;97151.22;;;-1.49;89.33
10135;BME280;5107;48.850;8.924;2023-01-27T09:31:17;97154.63;;;-1.49;89.46
10135;BME280;5107;48.850;8.924;2023-01-27T09:33:44;97147.50;;;-1.44;89.32
10135;BME280;5107;48.850;8.924;2023-01-27T09:36:15;97156.03;;;-1.28;90.72
10135;BME280;5107;48.850;8.924;2023-01-27T09:38:47;97158.44;;;-1.40;87.78
10135;BME280;5107;48.850;8.924;2023-01-27T09:41:48;97167.72;;;-1.52;88.02
10135;BME280;5107;48.850;8.924;2023-01-27T09:44:42;97158.13;;;-1.50;87.84
10135;BME280;5107;48.850;8.924;2023-01-27T09:47:36;97169.13;;;-1.46;87.79
10135;BME280;5107;48.850;8.924;2023-01-27T09:50:23;97163.03;;;-1.45;88.39
10135;BME280;5107;48.850;8.924;2023-01-27T09:55:59;97163.38;;;-1.36;88.46
10135;BME280;5107;48.850;8.924;2023-01-27T09:58:43;97168.19;;;-1.30;88.57
10135;BME280;5107;48.850;8.924;2023-01-27T10:01:24;97163.94;;;-1.31;87.91
10135;BME280;5107;48.850;8.924;2023-01-27T10:04:32;97167.34;;;-1.30;87.45
10135;BME280;5107;48.850;8.924;2023-01-27T10:07:32;97166.28;;;-1.42;87.43
10135;BME280;5107;48.850;8.924;2023-01-27T10:10:39;97163.38;;;-1.36;87.55
10135;BME280;5107;48.850;8.924;2023-01-27T10:13:19;97161.78;;;-1.08;90.42
10135;BME280;5107;48.850;8.924;2023-01-27T10:16:05;97162.81;;;-1.11;88.10
10135;BME280;5107;48.850;8.924;2023-01-27T10:19:00;97160.50;;;-1.16;86.96
10135;BME280;5107;48.850;8.924;2023-01-27T10:21:44;97152.59;;;-1.12;86.77
10135;BME280;5107;48.850;8.924;2023-01-27T10:24:28;97152.50;;;-1.11;86.28
10135;BME280;5107;48.850;8.924;2023-01-27T10:27:04;97157.69;;;-0.97;86.70
10135;BME280;5107;48.850;8.924;2023-01-27T10:29:40;97156.31;;;-1.02;85.21
10135;BME280;5107;48.850;8.924;2023-01-27T10:32:21;97164.88;;;-1.02;84.64
10135;BME280;5107;48.850;8.924;2023-01-27T10:35:02;97153.28;;;-0.95;84.38
10135;BME280;5107;48.850;8.924;2023-01-27T10:37:41;97145.53;;;-0.95;84.38
10135;BME280;5107;48.850;8.924;2023-01-27T10:40:18;97141.22;;;-0.94;82.79
10135;BME280;5107;48.850;8.924;2023-01-27T10:42:56;97148.50;;;-0.87;83.25
10135;BME280;5107;48.850;8.924;2023-01-27T10:45:31;97158.75;;;-0.85;83.20
10135;BME280;5107;48.850;8.924;2023-01-27T10:48:35;97151.56;;;-0.66;82.85
10135;BME280;5107;48.850;8.924;2023-01-27T10:51:10;97153.44;;;-0.68;82.30
10135;BME280;5107;48.850;8.924;2023-01-27T10:53:49;97159.16;;;-0.63;82.70
10135;BME280;5107;48.850;8.924;2023-01-27T10:56:30;97158.16;;;-0.60;82.31
10135;BME280;5107;48.850;8.924;2023-01-27T10:59:04;97162.41;;;-0.59;82.37
10135;BME280;5107;48.850;8.924;2023-01-27T11:01:43;97157.69;;;-0.53;82.24
10135;BME280;5107;48.850;8.924;2023-01-27T11:04:17;97165.25;;;-0.50;82.93
10135;BME280;5107;48.850;8.924;2023-01-27T11:06:48;97157.69;;;-0.39;82.49
10135;BME280;5107;48.850;8.924;2023-01-27T11:09:24;97157.31;;;-0.47;81.40
10135;BME280;5107;48.850;8.924;2023-01-27T11:11:53;97152.16;;;-0.47;81.41
10135;BME280;5107;48.850;8.924;2023-01-27T11:14:26;97160.81;;;-0.48;81.31
10135;BME280;5107;48.850;8.924;2023-01-27T11:17:02;97161.44;;;-0.58;81.87
10135;BME280;5107;48.850;8.924;2023-01-27T11:19:43;97166.28;;;-0.52;82.27
10135;BME280;5107;48.850;8.924;2023-01-27T11:22:20;97159.53;;;-0.55;82.09
10135;BME280;5107;48.850;8.924;2023-01-27T11:24:56;97166.75;;;-0.60;82.51
10135;BME280;5107;48.850;8.924;2023-01-27T11:27:40;97161.28;;;-0.69;82.58
10135;BME280;5107;48.850;8.924;2023-01-27T11:30:16;97162.19;;;-0.70;82.29
10135;BME280;5107;48.850;8.924;2023-01-27T11:32:58;97152.06;;;-0.59;82.89
10135;BME280;5107;48.850;8.924;2023-01-27T11:35:29;97162.41;;;-0.59;83.17
10135;BME280;5107;48.850;8.924;2023-01-27T11:37:56;97160.06;;;-0.64;82.87
10135;BME280;5107;48.850;8.924;2023-01-27T11:40:30;97149.56;;;-0.61;82.96
10135;BME280;5107;48.850;8.924;2023-01-27T11:42:58;97155.56;;;-0.60;83.11
10135;BME280;5107;48.850;8.924;2023-01-27T11:45:27;97158.41;;;-0.65;82.92
10135;BME280;5107;48.850;8.924;2023-01-27T11:47:59;97141.91;;;-0.62;82.84
10135;BME280;5107;48.850;8.924;2023-01-27T11:50:32;97138.66;;;-0.66;82.73
10135;BME280;5107;48.850;8.924;2023-01-27T11:53:10;97131.94;;;-0.68;83.11
10135;BME280;5107;48.850;8.924;2023-01-27T11:55:42;97127.59;;;-0.40;88.74
10135;BME280;5107;48.850;8.924;2023-01-27T11:58:18;97122.44;;;-0.40;85.93
10135;BME280;5107;48.850;8.924;2023-01-27T12:00:51;97130.47;;;-0.44;84.04
10135;BME280;5107;48.850;8.924;2023-01-27T12:03:25;97145.25;;;-0.46;83.61
10135;BME280;5107;48.850;8.924;2023-01-27T12:06:00;97142.00;;;-0.50;84.03
10135;BME280;5107;48.850;8.924;2023-01-27T12:08:41;97133.41;;;-0.50;84.24
10135;BME280;5107;48.850;8.924;2023-01-27T12:11:19;97127.25;;;-0.48;84.78
10135;BME280;5107;48.850;8.924;2023-01-27T12:13:53;97137.78;;;-0.51;83.74
10135;BME280;5107;48.850;8.924;2023-01-27T12:16:25;97132.94;;;-0.57;84.14
10135;BME280;5107;48.850;8.924;2023-01-27T12:19:00;97131.41;;;-0.59;84.44
10135;BME280;5107;48.850;8.924;2023-01-27T12:21:46;97114.94;;;-0.58;84.41
10135;BME280;5107;48.850;8.924;2023-01-27T12:24:27;97118.91;;;-0.67;84.65
10135;BME280;5107;48.850;8.924;2023-01-27T12:26:56;97122.81;;;-0.60;85.05
10135;BME280;5107;48.850;8.924;2023-01-27T12:29:34;97114.69;;;-0.68;85.20
10135;BME280;5107;48.850;8.924;2023-01-27T12:32:04;97126.84;;;-0.70;85.24
10135;BME280;5107;48.850;8.924;2023-01-27T12:34:38;97124.38;;;-0.71;86.75
10135;BME280;5107;48.850;8.924;2023-01-27T12:37:19;97117.91;;;-0.64;86.14
10135;BME280;5107;48.850;8.924;2023-01-27T12:39:50;97128.91;;;-0.61;86.45
10135;BME280;5107;48.850;8.924;2023-01-27T12:42:38;97117.28;;;-0.54;86.41
10135;BME280;5107;48.850;8.924;2023-01-27T12:45:25;97125.66;;;-0.50;85.27
10135;BME280;5107;48.850;8.924;2023-01-27T12:48:01;97121.31;;;-0.50;84.55
10135;BME280;5107;48.850;8.924;2023-01-27T12:50:30;97111.56;;;-0.59;85.00
10135;BME280;5107;48.850;8.924;2023-01-27T12:53:11;97115.91;;;-0.59;85.45
10135;BME280;5107;48.850;8.924;2023-01-27T12:55:42;97111.09;;;-0.51;85.16
10135;BME280;5107;48.850;8.924;2023-01-27T12:58:28;97125.41;;;-0.46;85.03
10135;BME280;5107;48.850;8.924;2023-01-27T13:00:58;97122.69;;;-0.58;85.10
10135;BME280;5107;48.850;8.924;2023-01-27T13:03:26;97123.91;;;-0.64;84.77
10135;BME280;5107;48.850;8.924;2023-01-27T13:05:56;97121.16;;;-0.61;85.22
10135;BME280;5107;48.850;8.924;2023-01-27T13:08:27;97128.91;;;-0.61;85.11
10135;BME280;5107;48.850;8.924;2023-01-27T13:10:59;97124.38;;;-0.57;85.58
10135;BME280;5107;48.850;8.924;2023-01-27T13:13:29;97128.34;;;-0.52;85.67
10135;BME280;5107;48.850;8.924;2023-01-27T13:16:07;97129.91;;;-0.49;86.42
10135;BME280;5107;48.850;8.924;2023-01-27T13:18:41;97132.31;;;-0.46;85.61
10135;BME280;5107;48.850;8.924;2023-01-27T13:21:12;97125.47;;;-0.47;85.46
10135;BME280;5107;48.850;8.924;2023-01-27T13:23:43;97137.50;;;-0.46;84.66
10135;BME280;5107;48.850;8.924;2023-01-27T13:26:17;97134.91;;;-0.46;83.79
10135;BME280;5107;48.850;8.924;2023-01-27T13:28:51;97140.63;;;-0.55;84.05
10135;BME280;5107;48.850;8.924;2023-01-27T13:31:31;97134.81;;;-0.59;84.72
10135;BME280;5107;48.850;8.924;2023-01-27T13:34:04;97127.41;;;-0.65;85.53
10135;BME280;5107;48.850;8.924;2023-01-27T13:36:40;97122.25;;;-0.65;85.60